sensor_id;sensor_type;location;lat;lon;timestamp;P1;durP1;ratioP1;P2;durP2;ratioP2
19043;SDS011;9654;52.302;8.120;2023-07-13T00:00:02;3.53;;;2.47;;
19043;SDS011;9654;52.302;8.120;2023-07-13T00:02:33;5.37;;;2.97;;
19043;SDS011;9654;52.302;8.120;2023-07-13T00:05:01;2.77;;;2.33;;
19043;SDS011;9654;52.302;8.120;2023-07-13T00:07:28;3.07;;;2.47;;
19043;SDS011;9654;52.302;8.120;2023-07-13T00:09:56;5.77;;;2.70;;
19043;SDS011;9654;52.302;8.120;2023-07-13T00:12:25;5.90;;;2.80;;
19043;SDS011;9654;52.302;8.120;2023-07-13T00:14:53;5.20;;;3.20;;
19043;SDS011;9654;52.302;8.120;2023-07-13T00:17:22;5.03;;;2.67;;
19043;SDS011;9654;52.302;8.120;2023-07-13T00:19:49;9.53;;;2.50;;
19043;SDS011;9654;52.302;8.120;2023-07-13T00:22:17;9.77;;;2.60;;
19043;SDS011;9654;52.302;8.120;2023-07-13T00:24:44;4.33;;;2.63;;
19043;SDS011;9654;52.302;8.120;2023-07-13T00:27:11;7.43;;;2.33;;
19043;SDS011;9654;52.302;8.120;2023-07-13T00:29:39;7.47;;;2.60;;
19043;SDS011;9654;52.302;8.120;2023-07-13T00:32:06;8.23;;;2.73;;
19043;SDS011;9654;52.302;8.120;2023-07-13T00:34:34;8.17;;;2.53;;
19043;SDS011;9654;52.302;8.120;2023-07-13T00:37:01;3.73;;;2.33;;
19043;SDS011;9654;52.302;8.120;2023-07-13T00:39:29;4.03;;;2.40;;
19043;SDS011;9654;52.302;8.120;2023-07-13T00:41:56;7.50;;;2.90;;
19043;SDS011;9654;52.302;8.120;2023-07-13T00:44:23;7.83;;;2.77;;
19043;SDS011;9654;52.302;8.120;2023-07-13T00:46:50;3.83;;;2.47;;
19043;SDS011;9654;52.302;8.120;2023-07-13T00:49:18;5.10;;;2.10;;
19043;SDS011;9654;52.302;8.120;2023-07-13T00:51:47;3.47;;;2.30;;
19043;SDS011;9654;52.302;8.120;2023-07-13T00:54:19;5.90;;;2.17;;
19043;SDS011;9654;52.302;8.120;2023-07-13T00:56:52;6.27;;;2.20;;
19043;SDS011;9654;52.302;8.120;2023-07-13T00:59:21;5.80;;;2.03;;
19043;SDS011;9654;52.302;8.120;2023-07-13T01:01:49;6.20;;;2.50;;
19043;SDS011;9654;52.302;8.120;2023-07-13T01:04:16;5.77;;;2.30;;
19043;SDS011;9654;52.302;8.120;2023-07-13T01:06:43;3.90;;;2.37;;
19043;SDS011;9654;52.302;8.120;2023-07-13T01:09:12;8.20;;;2.13;;
19043;SDS011;9654;52.302;8.120;2023-07-13T01:11:41;5.83;;;2.00;;
19043;SDS011;9654;52.302;8.120;2023-07-13T01:14:11;3.47;;;1.63;;
19043;SDS011;9654;52.302;8.120;2023-07-13T01:16:38;5.30;;;2.17;;
19043;SDS011;9654;52.302;8.120;2023-07-13T01:19:08;6.10;;;2.50;;
19043;SDS011;9654;52.302;8.120;2023-07-13T01:21:43;7.53;;;2.20;;
19043;SDS011;9654;52.302;8.120;2023-07-13T01:24:15;5.80;;;2.57;;
19043;SDS011;9654;52.302;8.120;2023-07-13T01:26:42;9.07;;;2.17;;
19043;SDS011;9654;52.302;8.120;2023-07-13T01:29:09;7.53;;;2.27;;
19043;SDS011;9654;52.302;8.120;2023-07-13T01:31:36;6.07;;;1.77;;
19043;SDS011;9654;52.302;8.120;2023-07-13T01:34:02;7.90;;;2.20;;
19043;SDS011;9654;52.302;8.120;2023-07-13T01:36:30;6.27;;;2.20;;
19043;SDS011;9654;52.302;8.120;2023-07-13T01:38:58;5.00;;;2.00;;
19043;SDS011;9654;52.302;8.120;2023-07-13T01:41:24;7.43;;;2.27;;
19043;SDS011;9654;52.302;8.120;2023-07-13T01:43:51;11.37;;;2.70;;
19043;SDS011;9654;52.302;8.120;2023-07-13T01:46:18;5.20;;;2.10;;
19043;SDS011;9654;52.302;8.120;2023-07-13T01:48:44;7.70;;;2.40;;
19043;SDS011;9654;52.302;8.120;2023-07-13T01:51:11;5.73;;;2.57;;
19043;SDS011;9654;52.302;8.120;2023-07-13T01:53:38;6.30;;;2.80;;
19043;SDS011;9654;52.302;8.120;2023-07-13T01:56:07;15.07;;;3.50;;
19043;SDS011;9654;52.302;8.120;2023-07-13T01:58:33;8.63;;;3.10;;
19043;SDS011;9654;52.302;8.120;2023-07-13T02:01:00;5.60;;;2.20;;
19043;SDS011;9654;52.302;8.120;2023-07-13T02:03:27;4.13;;;2.57;;
19043;SDS011;9654;52.302;8.120;2023-07-13T02:05:54;5.07;;;2.60;;
19043;SDS011;9654;52.302;8.120;2023-07-13T02:08:20;7.63;;;2.57;;
19043;SDS011;9654;52.302;8.120;2023-07-13T02:10:47;9.93;;;3.13;;
19043;SDS011;9654;52.302;8.120;2023-07-13T02:13:15;7.33;;;2.13;;
19043;SDS011;9654;52.302;8.120;2023-07-13T02:15:42;10.13;;;2.63;;
19043;SDS011;9654;52.302;8.120;2023-07-13T02:18:09;11.40;;;3.13;;
19043;SDS011;9654;52.302;8.120;2023-07-13T02:20:35;9.17;;;3.27;;
19043;SDS011;9654;52.302;8.120;2023-07-13T02:23:02;6.47;;;2.53;;
19043;SDS011;9654;52.302;8.120;2023-07-13T02:25:29;7.70;;;2.60;;
19043;SDS011;9654;52.302;8.120;2023-07-13T02:27:56;8.50;;;3.10;;
19043;SDS011;9654;52.302;8.120;2023-07-13T02:30:24;8.30;;;2.80;;
19043;SDS011;9654;52.302;8.120;2023-07-13T02:32:51;7.33;;;2.50;;
19043;SDS011;9654;52.302;8.120;2023-07-13T02:35:17;11.03;;;3.10;;
19043;SDS011;9654;52.302;8.120;2023-07-13T02:37:44;12.97;;;3.00;;
19043;SDS011;9654;52.302;8.120;2023-07-13T02:40:11;7.30;;;2.90;;
19043;SDS011;9654;52.302;8.120;2023-07-13T02:42:38;13.70;;;3.30;;
19043;SDS011;9654;52.302;8.120;2023-07-13T02:45:05;8.10;;;2.57;;
19043;SDS011;9654;52.302;8.120;2023-07-13T02:47:35;5.80;;;2.50;;
19043;SDS011;9654;52.302;8.120;2023-07-13T02:50:02;10.03;;;2.90;;
19043;SDS011;9654;52.302;8.120;2023-07-13T02:52:29;6.93;;;2.50;;
19043;SDS011;9654;52.302;8.120;2023-07-13T02:54:56;7.67;;;2.60;;
19043;SDS011;9654;52.302;8.120;2023-07-13T02:57:23;10.50;;;2.80;;
19043;SDS011;9654;52.302;8.120;2023-07-13T02:59:49;10.93;;;2.93;;
19043;SDS011;9654;52.302;8.120;2023-07-13T03:02:16;7.10;;;2.67;;
19043;SDS011;9654;52.302;8.120;2023-07-13T03:04:45;11.80;;;2.93;;
19043;SDS011;9654;52.302;8.120;2023-07-13T03:07:11;8.57;;;3.10;;
19043;SDS011;9654;52.302;8.120;2023-07-13T03:09:39;6.60;;;2.57;;
19043;SDS011;9654;52.302;8.120;2023-07-13T03:12:06;11.50;;;2.50;;
19043;SDS011;9654;52.302;8.120;2023-07-13T03:14:33;7.50;;;2.60;;
19043;SDS011;9654;52.302;8.120;2023-07-13T03:17:00;6.40;;;2.30;;
19043;SDS011;9654;52.302;8.120;2023-07-13T03:19:27;6.93;;;2.30;;
19043;SDS011;9654;52.302;8.120;2023-07-13T03:21:55;9.03;;;2.50;;
19043;SDS011;9654;52.302;8.120;2023-07-13T03:24:22;6.37;;;2.50;;
19043;SDS011;9654;52.302;8.120;2023-07-13T03:26:50;11.63;;;3.17;;
19043;SDS011;9654;52.302;8.120;2023-07-13T03:29:17;5.40;;;2.47;;
19043;SDS011;9654;52.302;8.120;2023-07-13T03:31:44;6.37;;;2.73;;
19043;SDS011;9654;52.302;8.120;2023-07-13T03:34:11;5.07;;;2.47;;
19043;SDS011;9654;52.302;8.120;2023-07-13T03:36:38;7.90;;;2.87;;
19043;SDS011;9654;52.302;8.120;2023-07-13T03:39:06;9.43;;;2.27;;
19043;SDS011;9654;52.302;8.120;2023-07-13T03:41:34;9.40;;;2.50;;
19043;SDS011;9654;52.302;8.120;2023-07-13T03:44:01;7.27;;;2.93;;
19043;SDS011;9654;52.302;8.120;2023-07-13T03:46:28;7.23;;;2.50;;
19043;SDS011;9654;52.302;8.120;2023-07-13T03:48:55;8.93;;;2.33;;
19043;SDS011;9654;52.302;8.120;2023-07-13T03:51:23;11.13;;;2.70;;
19043;SDS011;9654;52.302;8.120;2023-07-13T03:53:50;6.57;;;2.30;;
19043;SDS011;9654;52.302;8.120;2023-07-13T03:56:18;4.17;;;2.30;;
19043;SDS011;9654;52.302;8.120;2023-07-13T03:58:46;5.53;;;2.50;;
19043;SDS011;9654;52.302;8.120;2023-07-13T04:01:14;5.63;;;2.07;;
19043;SDS011;9654;52.302;8.120;2023-07-13T04:03:43;7.93;;;2.40;;
19043;SDS011;9654;52.302;8.120;2023-07-13T04:06:13;6.23;;;2.40;;
19043;SDS011;9654;52.302;8.120;2023-07-13T04:08:46;6.33;;;2.80;;
19043;SDS011;9654;52.302;8.120;2023-07-13T04:11:15;10.97;;;2.70;;
19043;SDS011;9654;52.302;8.120;2023-07-13T04:13:43;9.70;;;3.07;;
19043;SDS011;9654;52.302;8.120;2023-07-13T04:16:10;6.73;;;2.63;;
19043;SDS011;9654;52.302;8.120;2023-07-13T04:18:37;6.87;;;2.80;;
19043;SDS011;9654;52.302;8.120;2023-07-13T04:21:03;5.63;;;2.50;;
19043;SDS011;9654;52.302;8.120;2023-07-13T04:23:30;8.73;;;2.37;;
19043;SDS011;9654;52.302;8.120;2023-07-13T04:25:57;8.83;;;3.03;;
19043;SDS011;9654;52.302;8.120;2023-07-13T04:28:24;8.60;;;2.80;;
19043;SDS011;9654;52.302;8.120;2023-07-13T04:30:53;6.60;;;2.47;;
19043;SDS011;9654;52.302;8.120;2023-07-13T04:33:21;6.83;;;2.67;;
19043;SDS011;9654;52.302;8.120;2023-07-13T04:35:48;10.53;;;2.97;;
19043;SDS011;9654;52.302;8.120;2023-07-13T04:38:15;9.63;;;2.57;;
19043;SDS011;9654;52.302;8.120;2023-07-13T04:40:44;11.87;;;3.20;;
19043;SDS011;9654;52.302;8.120;2023-07-13T04:43:11;8.73;;;2.97;;
19043;SDS011;9654;52.302;8.120;2023-07-13T04:45:38;12.57;;;2.60;;
19043;SDS011;9654;52.302;8.120;2023-07-13T04:48:06;11.03;;;3.00;;
19043;SDS011;9654;52.302;8.120;2023-07-13T04:50:33;8.23;;;2.70;;
19043;SDS011;9654;52.302;8.120;2023-07-13T04:53:02;8.07;;;2.83;;
19043;SDS011;9654;52.302;8.120;2023-07-13T04:55:30;6.07;;;2.57;;
19043;SDS011;9654;52.302;8.120;2023-07-13T04:57:57;10.50;;;2.70;;
19043;SDS011;9654;52.302;8.120;2023-07-13T05:00:24;12.67;;;3.37;;
19043;SDS011;9654;52.302;8.120;2023-07-13T05:02:53;7.93;;;2.53;;
19043;SDS011;9654;52.302;8.120;2023-07-13T05:05:22;8.80;;;2.67;;
19043;SDS011;9654;52.302;8.120;2023-07-13T05:07:49;8.83;;;3.10;;
19043;SDS011;9654;52.302;8.120;2023-07-13T05:10:15;5.40;;;2.63;;
19043;SDS011;9654;52.302;8.120;2023-07-13T05:12:42;13.93;;;3.00;;
19043;SDS011;9654;52.302;8.120;2023-07-13T05:15:09;9.57;;;3.13;;
19043;SDS011;9654;52.302;8.120;2023-07-13T05:17:37;6.77;;;2.43;;
19043;SDS011;9654;52.302;8.120;2023-07-13T05:20:05;6.33;;;2.40;;
19043;SDS011;9654;52.302;8.120;2023-07-13T05:22:34;10.93;;;2.47;;
19043;SDS011;9654;52.302;8.120;2023-07-13T05:25:01;7.33;;;2.50;;
19043;SDS011;9654;52.302;8.120;2023-07-13T05:27:30;9.00;;;2.40;;
19043;SDS011;9654;52.302;8.120;2023-07-13T05:29:56;7.77;;;2.47;;
19043;SDS011;9654;52.302;8.120;2023-07-13T05:32:23;4.93;;;2.37;;
19043;SDS011;9654;52.302;8.120;2023-07-13T05:34:50;6.20;;;2.53;;
19043;SDS011;9654;52.302;8.120;2023-07-13T05:37:17;8.67;;;2.50;;
19043;SDS011;9654;52.302;8.120;2023-07-13T05:39:45;8.20;;;2.80;;
19043;SDS011;9654;52.302;8.120;2023-07-13T05:42:12;11.43;;;3.13;;
19043;SDS011;9654;52.302;8.120;2023-07-13T05:44:39;8.57;;;2.80;;
19043;SDS011;9654;52.302;8.120;2023-07-13T05:47:05;10.73;;;2.60;;
19043;SDS011;9654;52.302;8.120;2023-07-13T05:49:32;12.83;;;3.00;;
19043;SDS011;9654;52.302;8.120;2023-07-13T05:51:59;7.43;;;2.83;;
19043;SDS011;9654;52.302;8.120;2023-07-13T05:54:26;14.27;;;2.93;;
19043;SDS011;9654;52.302;8.120;2023-07-13T05:56:54;8.90;;;2.60;;
19043;SDS011;9654;52.302;8.120;2023-07-13T05:59:21;10.10;;;2.80;;
19043;SDS011;9654;52.302;8.120;2023-07-13T06:01:48;12.27;;;2.80;;
19043;SDS011;9654;52.302;8.120;2023-07-13T06:04:17;10.03;;;2.63;;
19043;SDS011;9654;52.302;8.120;2023-07-13T06:06:43;9.97;;;2.93;;
19043;SDS011;9654;52.302;8.120;2023-07-13T06:09:10;7.60;;;2.90;;
19043;SDS011;9654;52.302;8.120;2023-07-13T06:11:37;11.90;;;3.07;;
19043;SDS011;9654;52.302;8.120;2023-07-13T06:14:05;8.33;;;2.93;;
19043;SDS011;9654;52.302;8.120;2023-07-13T06:16:32;10.00;;;2.80;;
19043;SDS011;9654;52.302;8.120;2023-07-13T06:18:59;10.83;;;2.97;;
19043;SDS011;9654;52.302;8.120;2023-07-13T06:21:25;10.00;;;3.10;;
19043;SDS011;9654;52.302;8.120;2023-07-13T06:23:52;6.53;;;2.63;;
19043;SDS011;9654;52.302;8.120;2023-07-13T06:26:19;8.30;;;3.17;;
19043;SDS011;9654;52.302;8.120;2023-07-13T06:28:47;13.13;;;3.23;;
19043;SDS011;9654;52.302;8.120;2023-07-13T06:31:15;11.63;;;3.80;;
19043;SDS011;9654;52.302;8.120;2023-07-13T06:33:42;16.27;;;4.40;;
19043;SDS011;9654;52.302;8.120;2023-07-13T06:36:09;10.77;;;3.37;;
19043;SDS011;9654;52.302;8.120;2023-07-13T06:38:36;8.20;;;3.40;;
19043;SDS011;9654;52.302;8.120;2023-07-13T06:41:03;10.57;;;3.50;;
19043;SDS011;9654;52.302;8.120;2023-07-13T06:43:30;10.97;;;3.93;;
19043;SDS011;9654;52.302;8.120;2023-07-13T06:45:57;11.53;;;3.77;;
19043;SDS011;9654;52.302;8.120;2023-07-13T06:48:26;9.07;;;3.13;;
19043;SDS011;9654;52.302;8.120;2023-07-13T06:50:53;16.47;;;3.80;;
19043;SDS011;9654;52.302;8.120;2023-07-13T06:53:20;11.20;;;3.07;;
19043;SDS011;9654;52.302;8.120;2023-07-13T06:55:48;10.60;;;3.90;;
19043;SDS011;9654;52.302;8.120;2023-07-13T06:58:15;11.83;;;3.23;;
19043;SDS011;9654;52.302;8.120;2023-07-13T07:00:43;10.47;;;3.30;;
19043;SDS011;9654;52.302;8.120;2023-07-13T07:03:10;15.53;;;3.43;;
19043;SDS011;9654;52.302;8.120;2023-07-13T07:05:38;11.23;;;3.30;;
19043;SDS011;9654;52.302;8.120;2023-07-13T07:08:05;10.30;;;3.03;;
19043;SDS011;9654;52.302;8.120;2023-07-13T07:10:32;8.23;;;3.17;;
19043;SDS011;9654;52.302;8.120;2023-07-13T07:13:00;16.10;;;3.57;;
19043;SDS011;9654;52.302;8.120;2023-07-13T07:15:27;8.53;;;2.73;;
19043;SDS011;9654;52.302;8.120;2023-07-13T07:17:54;19.93;;;3.60;;
19043;SDS011;9654;52.302;8.120;2023-07-13T07:20:21;9.53;;;3.50;;
19043;SDS011;9654;52.302;8.120;2023-07-13T07:22:49;7.37;;;2.80;;
19043;SDS011;9654;52.302;8.120;2023-07-13T07:25:16;9.73;;;2.87;;
19043;SDS011;9654;52.302;8.120;2023-07-13T07:27:43;9.80;;;3.13;;
19043;SDS011;9654;52.302;8.120;2023-07-13T07:30:10;9.97;;;3.00;;
19043;SDS011;9654;52.302;8.120;2023-07-13T07:32:38;9.17;;;2.37;;
19043;SDS011;9654;52.302;8.120;2023-07-13T07:35:05;11.77;;;3.00;;
19043;SDS011;9654;52.302;8.120;2023-07-13T07:37:32;9.70;;;3.10;;
19043;SDS011;9654;52.302;8.120;2023-07-13T07:40:00;11.80;;;2.97;;
19043;SDS011;9654;52.302;8.120;2023-07-13T07:42:27;8.97;;;2.90;;
19043;SDS011;9654;52.302;8.120;2023-07-13T07:44:54;8.10;;;2.77;;
19043;SDS011;9654;52.302;8.120;2023-07-13T07:47:21;11.70;;;3.10;;
19043;SDS011;9654;52.302;8.120;2023-07-13T07:49:49;9.70;;;2.70;;
19043;SDS011;9654;52.302;8.120;2023-07-13T07:52:16;12.23;;;3.00;;
19043;SDS011;9654;52.302;8.120;2023-07-13T07:54:42;7.97;;;2.80;;
19043;SDS011;9654;52.302;8.120;2023-07-13T07:57:10;6.43;;;2.40;;
19043;SDS011;9654;52.302;8.120;2023-07-13T07:59:37;11.07;;;3.23;;
19043;SDS011;9654;52.302;8.120;2023-07-13T08:02:04;13.70;;;2.97;;
19043;SDS011;9654;52.302;8.120;2023-07-13T08:04:32;12.93;;;2.77;;
19043;SDS011;9654;52.302;8.120;2023-07-13T08:06:58;10.50;;;2.40;;
19043;SDS011;9654;52.302;8.120;2023-07-13T08:09:27;8.67;;;2.90;;
19043;SDS011;9654;52.302;8.120;2023-07-13T08:11:54;9.87;;;2.60;;
19043;SDS011;9654;52.302;8.120;2023-07-13T08:14:22;9.83;;;2.80;;
19043;SDS011;9654;52.302;8.120;2023-07-13T08:16:49;7.40;;;2.50;;
19043;SDS011;9654;52.302;8.120;2023-07-13T08:19:16;8.63;;;2.30;;
19043;SDS011;9654;52.302;8.120;2023-07-13T08:21:42;8.60;;;2.57;;
19043;SDS011;9654;52.302;8.120;2023-07-13T08:24:09;12.47;;;2.93;;
19043;SDS011;9654;52.302;8.120;2023-07-13T08:26:36;7.60;;;2.33;;
19043;SDS011;9654;52.302;8.120;2023-07-13T08:29:03;9.17;;;2.57;;
19043;SDS011;9654;52.302;8.120;2023-07-13T08:31:31;4.97;;;2.10;;
19043;SDS011;9654;52.302;8.120;2023-07-13T08:33:58;6.13;;;2.43;;
19043;SDS011;9654;52.302;8.120;2023-07-13T08:36:25;5.27;;;1.80;;
19043;SDS011;9654;52.302;8.120;2023-07-13T08:38:52;4.87;;;2.23;;
19043;SDS011;9654;52.302;8.120;2023-07-13T08:41:19;7.07;;;2.37;;
19043;SDS011;9654;52.302;8.120;2023-07-13T08:43:48;5.50;;;2.20;;
19043;SDS011;9654;52.302;8.120;2023-07-13T08:46:18;7.33;;;2.27;;
19043;SDS011;9654;52.302;8.120;2023-07-13T08:48:51;5.83;;;2.27;;
19043;SDS011;9654;52.302;8.120;2023-07-13T08:54:11;5.13;;;2.03;;
19043;SDS011;9654;52.302;8.120;2023-07-13T08:56:45;6.73;;;1.90;;
19043;SDS011;9654;52.302;8.120;2023-07-13T08:59:14;6.17;;;1.90;;
19043;SDS011;9654;52.302;8.120;2023-07-13T09:04:42;5.63;;;2.13;;
19043;SDS011;9654;52.302;8.120;2023-07-13T09:07:13;5.57;;;2.17;;
19043;SDS011;9654;52.302;8.120;2023-07-13T09:09:50;7.53;;;2.30;;
19043;SDS011;9654;52.302;8.120;2023-07-13T09:12:31;4.47;;;2.53;;
19043;SDS011;9654;52.302;8.120;2023-07-13T09:15:13;8.50;;;2.87;;
19043;SDS011;9654;52.302;8.120;2023-07-13T09:17:49;5.87;;;2.40;;
19043;SDS011;9654;52.302;8.120;2023-07-13T09:20:21;10.47;;;2.60;;
19043;SDS011;9654;52.302;8.120;2023-07-13T09:22:52;4.93;;;2.43;;
19043;SDS011;9654;52.302;8.120;2023-07-13T09:25:23;6.53;;;2.63;;
19043;SDS011;9654;52.302;8.120;2023-07-13T09:27:56;6.97;;;3.30;;
19043;SDS011;9654;52.302;8.120;2023-07-13T09:30:33;4.67;;;2.30;;
19043;SDS011;9654;52.302;8.120;2023-07-13T09:33:03;6.10;;;2.10;;
19043;SDS011;9654;52.302;8.120;2023-07-13T09:35:31;6.03;;;2.00;;
19043;SDS011;9654;52.302;8.120;2023-07-13T09:37:59;3.80;;;2.43;;
19043;SDS011;9654;52.302;8.120;2023-07-13T09:40:33;10.13;;;2.23;;
19043;SDS011;9654;52.302;8.120;2023-07-13T09:43:07;6.10;;;2.30;;
19043;SDS011;9654;52.302;8.120;2023-07-13T09:45:37;4.53;;;2.27;;
19043;SDS011;9654;52.302;8.120;2023-07-13T09:48:04;5.97;;;2.17;;
19043;SDS011;9654;52.302;8.120;2023-07-13T09:50:35;8.57;;;2.30;;
19043;SDS011;9654;52.302;8.120;2023-07-13T09:53:02;6.87;;;2.43;;
19043;SDS011;9654;52.302;8.120;2023-07-13T09:55:30;9.10;;;2.80;;
19043;SDS011;9654;52.302;8.120;2023-07-13T09:58:02;6.80;;;2.63;;
19043;SDS011;9654;52.302;8.120;2023-07-13T10:00:31;8.37;;;2.90;;
19043;SDS011;9654;52.302;8.120;2023-07-13T10:02:59;4.90;;;2.37;;
19043;SDS011;9654;52.302;8.120;2023-07-13T10:05:28;6.67;;;2.70;;
19043;SDS011;9654;52.302;8.120;2023-07-13T10:08:09;9.63;;;2.60;;
19043;SDS011;9654;52.302;8.120;2023-07-13T10:10:43;9.83;;;2.93;;
19043;SDS011;9654;52.302;8.120;2023-07-13T10:13:21;6.30;;;2.27;;
19043;SDS011;9654;52.302;8.120;2023-07-13T10:15:55;5.10;;;2.30;;
19043;SDS011;9654;52.302;8.120;2023-07-13T10:18:23;7.60;;;2.60;;
19043;SDS011;9654;52.302;8.120;2023-07-13T10:20:54;8.03;;;2.67;;
19043;SDS011;9654;52.302;8.120;2023-07-13T10:23:34;4.77;;;2.50;;
19043;SDS011;9654;52.302;8.120;2023-07-13T10:26:02;8.03;;;3.13;;
19043;SDS011;9654;52.302;8.120;2023-07-13T10:28:31;6.07;;;2.10;;
19043;SDS011;9654;52.302;8.120;2023-07-13T10:31:02;5.93;;;2.40;;
19043;SDS011;9654;52.302;8.120;2023-07-13T10:33:36;5.17;;;2.53;;
19043;SDS011;9654;52.302;8.120;2023-07-13T10:36:06;7.20;;;2.30;;
19043;SDS011;9654;52.302;8.120;2023-07-13T10:38:40;7.33;;;2.80;;
19043;SDS011;9654;52.302;8.120;2023-07-13T10:41:09;7.33;;;3.10;;
19043;SDS011;9654;52.302;8.120;2023-07-13T10:43:41;5.30;;;2.30;;
19043;SDS011;9654;52.302;8.120;2023-07-13T10:46:11;4.93;;;2.30;;
19043;SDS011;9654;52.302;8.120;2023-07-13T10:48:39;6.70;;;2.10;;
19043;SDS011;9654;52.302;8.120;2023-07-13T10:51:09;4.43;;;2.50;;
19043;SDS011;9654;52.302;8.120;2023-07-13T10:53:38;4.20;;;2.30;;
19043;SDS011;9654;52.302;8.120;2023-07-13T10:56:06;12.70;;;2.27;;
19043;SDS011;9654;52.302;8.120;2023-07-13T10:58:47;7.37;;;2.40;;
19043;SDS011;9654;52.302;8.120;2023-07-13T11:01:39;4.70;;;2.30;;
19043;SDS011;9654;52.302;8.120;2023-07-13T11:04:08;8.67;;;2.70;;
19043;SDS011;9654;52.302;8.120;2023-07-13T11:06:41;4.53;;;2.47;;
19043;SDS011;9654;52.302;8.120;2023-07-13T11:09:28;6.70;;;2.70;;
19043;SDS011;9654;52.302;8.120;2023-07-13T11:12:06;5.67;;;2.70;;
19043;SDS011;9654;52.302;8.120;2023-07-13T11:14:35;5.43;;;2.53;;
19043;SDS011;9654;52.302;8.120;2023-07-13T11:20:04;5.93;;;2.20;;
19043;SDS011;9654;52.302;8.120;2023-07-13T11:22:47;6.73;;;2.90;;
19043;SDS011;9654;52.302;8.120;2023-07-13T11:25:24;6.40;;;2.33;;
19043;SDS011;9654;52.302;8.120;2023-07-13T11:28:04;5.00;;;2.08;;
19043;SDS011;9654;52.302;8.120;2023-07-13T11:30:38;8.77;;;2.45;;
19043;SDS011;9654;52.302;8.120;2023-07-13T11:33:13;7.82;;;2.40;;
19043;SDS011;9654;52.302;8.120;2023-07-13T11:35:45;6.93;;;2.40;;
19043;SDS011;9654;52.302;8.120;2023-07-13T11:38:30;5.57;;;2.67;;
19043;SDS011;9654;52.302;8.120;2023-07-13T11:41:00;7.55;;;1.98;;
19043;SDS011;9654;52.302;8.120;2023-07-13T11:43:29;4.83;;;2.17;;
19043;SDS011;9654;52.302;8.120;2023-07-13T11:45:59;3.95;;;2.30;;
19043;SDS011;9654;52.302;8.120;2023-07-13T11:48:38;6.88;;;2.25;;
19043;SDS011;9654;52.302;8.120;2023-07-13T11:51:06;6.93;;;2.53;;
19043;SDS011;9654;52.302;8.120;2023-07-13T11:53:36;5.72;;;2.65;;
19043;SDS011;9654;52.302;8.120;2023-07-13T11:56:06;3.92;;;2.15;;
19043;SDS011;9654;52.302;8.120;2023-07-13T11:58:33;5.32;;;2.03;;
19043;SDS011;9654;52.302;8.120;2023-07-13T12:01:01;6.18;;;2.28;;
19043;SDS011;9654;52.302;8.120;2023-07-13T12:03:29;3.83;;;2.15;;
19043;SDS011;9654;52.302;8.120;2023-07-13T12:05:58;3.95;;;2.30;;
19043;SDS011;9654;52.302;8.120;2023-07-13T12:08:26;2.10;;;1.83;;
19043;SDS011;9654;52.302;8.120;2023-07-13T12:10:59;7.63;;;2.05;;
19043;SDS011;9654;52.302;8.120;2023-07-13T12:13:34;7.22;;;2.20;;
19043;SDS011;9654;52.302;8.120;2023-07-13T12:16:02;6.65;;;2.00;;
19043;SDS011;9654;52.302;8.120;2023-07-13T12:18:36;7.27;;;2.30;;
19043;SDS011;9654;52.302;8.120;2023-07-13T12:21:03;5.43;;;1.97;;
19043;SDS011;9654;52.302;8.120;2023-07-13T12:23:32;6.77;;;2.47;;
19043;SDS011;9654;52.302;8.120;2023-07-13T12:26:03;4.67;;;2.23;;
19043;SDS011;9654;52.302;8.120;2023-07-13T12:28:33;6.10;;;2.28;;
19043;SDS011;9654;52.302;8.120;2023-07-13T12:31:03;9.17;;;2.33;;
19043;SDS011;9654;52.302;8.120;2023-07-13T12:33:31;5.47;;;2.00;;
19043;SDS011;9654;52.302;8.120;2023-07-13T12:36:00;2.67;;;1.75;;
19043;SDS011;9654;52.302;8.120;2023-07-13T12:38:30;5.40;;;2.33;;
19043;SDS011;9654;52.302;8.120;2023-07-13T12:40:57;8.27;;;2.77;;
19043;SDS011;9654;52.302;8.120;2023-07-13T12:43:25;4.50;;;1.90;;
19043;SDS011;9654;52.302;8.120;2023-07-13T12:45:57;8.40;;;2.23;;
19043;SDS011;9654;52.302;8.120;2023-07-13T12:48:25;3.03;;;1.40;;
19043;SDS011;9654;52.302;8.120;2023-07-13T12:50:53;3.23;;;1.30;;
19043;SDS011;9654;52.302;8.120;2023-07-13T12:53:22;3.70;;;1.60;;
19043;SDS011;9654;52.302;8.120;2023-07-13T12:55:56;9.13;;;1.90;;
19043;SDS011;9654;52.302;8.120;2023-07-13T12:58:27;4.13;;;1.90;;
19043;SDS011;9654;52.302;8.120;2023-07-13T13:00:55;3.57;;;2.13;;
19043;SDS011;9654;52.302;8.120;2023-07-13T13:03:24;4.03;;;2.00;;
19043;SDS011;9654;52.302;8.120;2023-07-13T13:05:56;3.20;;;2.73;;
19043;SDS011;9654;52.302;8.120;2023-07-13T13:08:25;3.70;;;2.60;;
19043;SDS011;9654;52.302;8.120;2023-07-13T13:10:52;4.57;;;2.80;;
19043;SDS011;9654;52.302;8.120;2023-07-13T13:13:19;4.63;;;2.60;;
19043;SDS011;9654;52.302;8.120;2023-07-13T13:15:47;2.70;;;2.50;;
19043;SDS011;9654;52.302;8.120;2023-07-13T13:18:17;3.63;;;2.87;;
19043;SDS011;9654;52.302;8.120;2023-07-13T13:20:45;4.40;;;2.80;;
19043;SDS011;9654;52.302;8.120;2023-07-13T13:23:13;4.37;;;2.87;;
19043;SDS011;9654;52.302;8.120;2023-07-13T13:25:42;5.53;;;2.77;;
19043;SDS011;9654;52.302;8.120;2023-07-13T13:28:12;3.10;;;2.43;;
19043;SDS011;9654;52.302;8.120;2023-07-13T13:30:41;3.57;;;2.57;;
19043;SDS011;9654;52.302;8.120;2023-07-13T13:33:10;3.67;;;2.60;;
19043;SDS011;9654;52.302;8.120;2023-07-13T13:35:38;4.80;;;2.40;;
19043;SDS011;9654;52.302;8.120;2023-07-13T13:38:11;2.30;;;2.10;;
19043;SDS011;9654;52.302;8.120;2023-07-13T13:40:39;2.30;;;2.10;;
19043;SDS011;9654;52.302;8.120;2023-07-13T13:43:13;5.00;;;2.30;;
19043;SDS011;9654;52.302;8.120;2023-07-13T13:45:41;3.63;;;2.57;;
19043;SDS011;9654;52.302;8.120;2023-07-13T13:48:12;3.53;;;2.90;;
19043;SDS011;9654;52.302;8.120;2023-07-13T13:50:41;6.87;;;2.60;;
19043;SDS011;9654;52.302;8.120;2023-07-13T13:53:09;4.70;;;2.57;;
19043;SDS011;9654;52.302;8.120;2023-07-13T13:55:38;5.33;;;2.50;;
19043;SDS011;9654;52.302;8.120;2023-07-13T13:58:06;4.23;;;3.00;;
19043;SDS011;9654;52.302;8.120;2023-07-13T14:00:34;3.87;;;3.10;;
19043;SDS011;9654;52.302;8.120;2023-07-13T14:03:01;3.13;;;2.70;;
19043;SDS011;9654;52.302;8.120;2023-07-13T14:05:30;5.07;;;3.60;;
19043;SDS011;9654;52.302;8.120;2023-07-13T14:07:56;8.33;;;4.37;;
19043;SDS011;9654;52.302;8.120;2023-07-13T14:10:24;9.10;;;4.03;;
19043;SDS011;9654;52.302;8.120;2023-07-13T14:12:53;7.90;;;4.60;;
19043;SDS011;9654;52.302;8.120;2023-07-13T14:15:23;7.70;;;3.90;;
19043;SDS011;9654;52.302;8.120;2023-07-13T14:17:51;7.73;;;4.33;;
19043;SDS011;9654;52.302;8.120;2023-07-13T14:20:20;7.03;;;4.07;;
19043;SDS011;9654;52.302;8.120;2023-07-13T14:22:50;8.23;;;4.27;;
19043;SDS011;9654;52.302;8.120;2023-07-13T14:25:18;6.00;;;4.13;;
19043;SDS011;9654;52.302;8.120;2023-07-13T14:27:48;4.80;;;4.00;;
19043;SDS011;9654;52.302;8.120;2023-07-13T14:30:19;7.77;;;4.50;;
19043;SDS011;9654;52.302;8.120;2023-07-13T14:32:47;5.47;;;4.23;;
19043;SDS011;9654;52.302;8.120;2023-07-13T14:35:15;6.20;;;4.03;;
19043;SDS011;9654;52.302;8.120;2023-07-13T14:37:43;7.27;;;4.00;;
19043;SDS011;9654;52.302;8.120;2023-07-13T14:40:14;7.43;;;4.00;;
19043;SDS011;9654;52.302;8.120;2023-07-13T14:42:42;6.33;;;4.23;;
19043;SDS011;9654;52.302;8.120;2023-07-13T14:45:12;7.27;;;4.83;;
19043;SDS011;9654;52.302;8.120;2023-07-13T14:47:40;5.40;;;4.00;;
19043;SDS011;9654;52.302;8.120;2023-07-13T14:50:11;7.80;;;4.57;;
19043;SDS011;9654;52.302;8.120;2023-07-13T14:52:41;6.80;;;4.80;;
19043;SDS011;9654;52.302;8.120;2023-07-13T14:55:09;7.80;;;4.37;;
19043;SDS011;9654;52.302;8.120;2023-07-13T14:57:39;8.47;;;4.43;;
19043;SDS011;9654;52.302;8.120;2023-07-13T15:00:12;6.70;;;4.50;;
19043;SDS011;9654;52.302;8.120;2023-07-13T15:02:40;8.20;;;4.30;;
19043;SDS011;9654;52.302;8.120;2023-07-13T15:05:12;9.50;;;4.40;;
19043;SDS011;9654;52.302;8.120;2023-07-13T15:07:40;6.00;;;4.10;;
19043;SDS011;9654;52.302;8.120;2023-07-13T15:10:17;6.23;;;4.30;;
19043;SDS011;9654;52.302;8.120;2023-07-13T15:12:47;6.63;;;4.30;;
19043;SDS011;9654;52.302;8.120;2023-07-13T15:15:14;3.90;;;3.40;;